Carouge, Switzerland
Current Conditions -  °F | °C
As of 11:50 AM on Friday 24 Oct 2014 (Local Time) from LSGG Reporting Station
Scattered Clouds Scattered Clouds  
Wind Chill: 50°   Ceiling: Unl
Heat Index: 50°   Visibility: 6mi
Dew Point: 41°   Wind: 12mph
Humidity: 71%   Direction: 60°ENE
Pressure: 30.18"   Gusts: NA
Location:  46.19°N, 6.13°E
Report Text: LSGG 240950Z 06010KT 9999 SCT020 10/05 Q1022 NOSIG
Loading
Personal Weather Stations






























Interactive Weather Map
Tropical Storm Tracking
New forecast layout! Learn more

10-Day Weather Forecast

Advertisements
Track Severe Weather on mobile